Time;durP1;ratioP1;P1;durP2;ratioP2;P2;SDS_P1;SDS_P2;PMS_P1;PMS_P2;Temp;Humidity;BMP_temperature;BMP_pressure;BME280_temperature;BME280_humidity;BME280_pressure;Samples;Min_cycle;Max_cycle;Signal;HPM_P1;HPM_P2
2022/06/11 00:01:39;;;;;;;16.42;9.88;;;16.80;99.90;;;;;;5147181;27;20035;-63
2022/06/11 00:04:24;;;;;;;16.17;10.00;;;16.80;99.90;;;;;;5144766;27;20043;-63
2022/06/11 00:06:53;;;;;;;14.50;10.38;;;16.80;99.90;;;;;;5149760;27;20069;-63
2022/06/11 00:09:20;;;;;;;14.57;10.18;;;16.80;99.90;;;;;;5145505;27;20031;-63
2022/06/11 00:11:47;;;;;;;18.55;10.60;;;16.80;99.90;;;;;;5148305;27;20599;-63
2022/06/11 00:14:14;;;;;;;17.25;10.65;;;16.80;99.90;;;;;;5147296;27;20898;-63
2022/06/11 00:16:40;;;;;;;18.67;10.90;;;16.90;99.90;;;;;;5151178;27;20462;-63
2022/06/11 00:19:06;;;;;;;20.08;11.43;;;16.80;99.90;;;;;;5143954;27;20034;-63
2022/06/11 00:21:34;;;;;;;15.30;9.95;;;16.80;99.90;;;;;;5147214;27;20714;-63
2022/06/11 00:24:00;;;;;;;18.42;10.75;;;16.70;99.90;;;;;;5147381;27;20489;-63
2022/06/11 00:26:26;;;;;;;20.25;11.43;;;16.60;99.90;;;;;;5145657;27;20672;-63
2022/06/11 00:28:52;;;;;;;17.85;11.10;;;16.60;99.90;;;;;;5144890;27;20454;-63
2022/06/11 00:31:19;;;;;;;16.27;11.25;;;16.50;99.90;;;;;;5148023;27;20026;-63
2022/06/11 00:33:45;;;;;;;15.35;10.68;;;16.40;99.90;;;;;;5148105;27;20038;-63
2022/06/11 00:36:12;;;;;;;20.65;11.38;;;16.30;99.90;;;;;;5147044;27;20090;-63
2022/06/11 00:38:39;;;;;;;14.55;10.95;;;16.20;99.90;;;;;;5148444;27;20034;-63
2022/06/11 00:41:07;;;;;;;15.13;10.48;;;16.10;99.90;;;;;;5145767;27;20496;-63
2022/06/11 00:43:33;;;;;;;14.70;11.65;;;16.00;99.90;;;;;;5139509;27;20090;-63
2022/06/11 00:46:21;;;;;;;19.73;11.57;;;15.90;99.90;;;;;;5145553;27;20027;-63
2022/06/11 00:48:48;;;;;;;17.60;11.07;;;15.80;99.90;;;;;;5143712;27;20054;-63
2022/06/11 00:51:20;;;;;;;21.45;11.43;;;15.70;99.90;;;;;;5150678;27;20043;-63
2022/06/11 00:53:51;;;;;;;23.48;10.73;;;15.70;99.90;;;;;;5149301;27;20049;-63
2022/06/11 00:56:32;;;;;;;21.25;11.45;;;15.60;99.90;;;;;;5142074;27;20050;-63
2022/06/11 00:59:00;;;;;;;16.90;11.35;;;15.50;99.90;;;;;;5143527;27;20039;-63
2022/06/11 01:01:27;;;;;;;14.43;10.75;;;15.40;99.90;;;;;;5152821;27;20031;-63
2022/06/11 01:03:58;;;;;;;16.88;10.65;;;15.40;99.90;;;;;;5152039;27;20107;-63
2022/06/11 01:06:51;;;;;;;18.75;10.93;;;15.40;99.90;;;;;;5148112;27;20035;-63
2022/06/11 01:09:37;;;;;;;14.25;10.38;;;15.30;99.90;;;;;;5150858;27;20389;-63
2022/06/11 01:12:28;;;;;;;18.58;10.25;;;15.20;99.90;;;;;;5147642;27;20033;-63
2022/06/11 01:15:04;;;;;;;13.13;9.43;;;15.10;99.90;;;;;;5145794;27;20043;-63
2022/06/11 01:17:52;;;;;;;17.30;9.35;;;15.10;99.90;;;;;;5145775;27;20045;-63
2022/06/11 01:20:59;;;;;;;17.38;9.63;;;15.00;99.90;;;;;;5142589;27;20458;-63
2022/06/11 01:23:46;;;;;;;15.77;9.73;;;14.90;99.90;;;;;;5144092;27;20506;-63
2022/06/11 01:26:14;;;;;;;14.52;9.55;;;14.80;99.90;;;;;;5147855;27;20036;-63
2022/06/11 01:28:58;;;;;;;13.88;9.38;;;14.80;99.90;;;;;;5131384;27;20094;-63
2022/06/11 01:31:52;;;;;;;13.55;8.93;;;14.80;99.90;;;;;;5151447;27;20092;-63
2022/06/11 01:34:34;;;;;;;13.65;8.65;;;14.90;99.90;;;;;;5128968;27;20045;-63
2022/06/11 01:37:09;;;;;;;14.98;8.73;;;14.90;99.90;;;;;;5150581;27;20367;-63
2022/06/11 01:39:44;;;;;;;12.50;8.38;;;14.90;99.90;;;;;;5149057;27;20030;-63
2022/06/11 01:42:21;;;;;;;13.38;8.35;;;14.90;99.90;;;;;;5147874;27;20087;-63
2022/06/11 01:45:00;;;;;;;14.38;7.78;;;14.80;99.90;;;;;;5133852;27;20166;-63
2022/06/11 01:47:26;;;;;;;11.63;7.25;;;14.80;99.90;;;;;;5152761;27;20049;-63
2022/06/11 01:49:51;;;;;;;11.88;7.13;;;14.80;99.90;;;;;;5146007;27;20019;-63
2022/06/11 01:52:37;;;;;;;10.43;6.93;;;14.80;99.90;;;;;;5151096;27;20073;-63
2022/06/11 01:55:12;;;;;;;12.20;7.32;;;14.70;99.90;;;;;;5150342;27;20438;-63
2022/06/11 01:57:53;;;;;;;12.73;8.20;;;14.70;99.90;;;;;;5149949;27;20035;-63
2022/06/11 02:00:18;;;;;;;;;;;14.60;99.90;;;;;;5139655;27;20038;-63
2022/06/11 02:03:05;;;;;;;11.80;7.00;;;14.50;99.90;;;;;;5141052;27;19919;-63
2022/06/11 02:05:39;;;;;;;10.40;6.93;;;14.40;99.90;;;;;;5149236;27;20046;-63
2022/06/11 02:08:16;;;;;;;10.60;6.40;;;14.40;99.90;;;;;;5145447;27;20045;-63
2022/06/11 02:11:08;;;;;;;9.73;6.32;;;14.30;99.90;;;;;;5141292;27;20034;-63
2022/06/11 02:14:03;;;;;;;12.02;6.50;;;14.20;99.90;;;;;;5135363;27;20425;-63
2022/06/11 02:16:38;;;;;;;8.40;5.78;;;14.20;99.90;;;;;;5153155;27;20041;-63
2022/06/11 02:19:13;;;;;;;12.05;5.40;;;14.10;99.90;;;;;;5150026;27;20074;-63
2022/06/11 02:21:57;;;;;;;9.90;6.05;;;14.00;99.90;;;;;;5149794;27;20091;-63
2022/06/11 02:24:32;;;;;;;8.15;5.97;;;14.00;99.90;;;;;;5140133;27;20070;-63
2022/06/11 02:27:05;;;;;;;13.68;6.25;;;13.90;99.90;;;;;;5145749;27;20642;-63
2022/06/11 02:29:33;;;;;;;8.38;5.70;;;13.90;99.90;;;;;;5142738;27;20030;-63
2022/06/11 02:32:05;;;;;;;11.88;6.35;;;13.90;99.90;;;;;;5150968;27;20049;-63
2022/06/11 02:34:32;;;;;;;10.40;6.65;;;13.90;99.90;;;;;;5148081;27;20050;-63
2022/06/11 02:37:10;;;;;;;11.70;7.20;;;14.00;99.90;;;;;;5150053;27;20044;-63
2022/06/11 02:39:41;;;;;;;12.68;7.90;;;14.00;99.90;;;;;;5143384;27;20066;-63
2022/06/11 02:42:11;;;;;;;16.40;10.18;;;14.10;99.90;;;;;;5146152;27;20492;-63
2022/06/11 02:44:36;;;;;;;17.05;12.23;;;14.20;99.90;;;;;;5144491;27;20062;-63
2022/06/11 02:47:03;;;;;;;20.33;12.45;;;14.20;99.90;;;;;;5148640;27;20091;-63
2022/06/11 02:49:33;;;;;;;17.45;12.13;;;14.20;99.90;;;;;;5137774;27;20056;-63
2022/06/11 02:52:06;;;;;;;23.95;13.65;;;14.30;99.90;;;;;;5149488;27;20062;-63
2022/06/11 02:54:32;;;;;;;23.05;11.93;;;14.50;99.90;;;;;;5147818;27;20077;-63
2022/06/11 02:57:01;;;;;;;20.13;11.65;;;14.60;99.90;;;;;;5145635;27;20054;-62
2022/06/11 02:59:27;;;;;;;22.40;12.38;;;14.50;99.90;;;;;;5141163;27;20041;-63
2022/06/11 03:01:54;;;;;;;20.27;12.20;;;14.50;99.90;;;;;;5130673;27;20122;-63
2022/06/11 03:04:22;;;;;;;17.27;11.10;;;14.50;99.90;;;;;;5142491;27;20039;-63
2022/06/11 03:06:48;;;;;;;18.70;12.02;;;14.50;99.90;;;;;;5151989;27;20083;-63
2022/06/11 03:09:17;;;;;;;18.80;11.80;;;14.50;99.90;;;;;;5147784;27;20091;-63
2022/06/11 03:11:43;;;;;;;19.98;12.18;;;14.50;99.90;;;;;;5152719;27;20043;-62
2022/06/11 03:14:09;;;;;;;23.73;12.15;;;14.50;99.90;;;;;;5142085;27;20038;-63
2022/06/11 03:16:37;;;;;;;16.63;10.73;;;14.40;99.90;;;;;;5148461;27;20095;-63
2022/06/11 03:19:04;;;;;;;18.60;10.77;;;14.40;99.90;;;;;;5148729;27;20081;-63
2022/06/11 03:21:30;;;;;;;14.63;9.85;;;14.40;99.90;;;;;;5146742;27;20474;-63
2022/06/11 03:23:55;;;;;;;17.38;10.27;;;14.30;99.90;;;;;;5143890;27;20118;-63
2022/06/11 03:26:21;;;;;;;17.17;11.32;;;14.30;99.90;;;;;;5150424;27;20110;-63
2022/06/11 03:28:47;;;;;;;18.10;10.18;;;14.20;99.90;;;;;;5147695;27;20027;-63
2022/06/11 03:31:14;;;;;;;19.25;10.52;;;14.20;99.90;;;;;;5142034;27;20094;-63
2022/06/11 03:33:40;;;;;;;18.92;10.68;;;14.10;99.90;;;;;;5130029;27;20057;-63
2022/06/11 03:36:09;;;;;;;15.50;10.07;;;14.10;99.90;;;;;;5152541;27;20042;-63
2022/06/11 03:38:36;;;;;;;17.52;10.57;;;14.00;99.90;;;;;;5149156;27;20121;-63
2022/06/11 03:41:04;;;;;;;16.08;10.25;;;14.00;99.90;;;;;;5138437;27;20513;-63
2022/06/11 03:43:29;;;;;;;17.88;11.60;;;14.00;99.90;;;;;;5147354;27;20363;-63
2022/06/11 03:45:55;;;;;;;16.88;11.13;;;14.00;99.90;;;;;;5128831;27;20117;-63
2022/06/11 03:48:22;;;;;;;18.08;11.27;;;13.90;99.90;;;;;;5148939;27;20394;-63
2022/06/11 03:50:48;;;;;;;15.90;10.63;;;13.90;99.90;;;;;;5130562;27;20451;-63
2022/06/11 03:53:13;;;;;;;21.23;11.52;;;13.90;99.90;;;;;;5147728;27;20149;-63
2022/06/11 03:55:42;;;;;;;20.58;12.00;;;13.90;99.90;;;;;;5150768;27;20113;-63
2022/06/11 03:58:10;;;;;;;20.95;11.55;;;13.90;99.90;;;;;;5145367;27;20035;-63
2022/06/11 04:01:14;;;;;;;19.38;11.65;;;13.90;99.90;;;;;;5141751;27;20520;-63
2022/06/11 04:03:23;;;;;;;18.70;13.05;;;13.90;99.90;;;;;;5142589;27;22598;-63
2022/06/11 04:05:52;;;;;;;21.13;12.32;;;14.00;99.90;;;;;;5140346;27;20478;-63
2022/06/11 04:08:19;;;;;;;24.13;13.77;;;14.00;99.90;;;;;;5121650;27;20034;-62
2022/06/11 04:10:45;;;;;;;22.08;13.07;;;14.10;99.90;;;;;;5149979;27;20030;-62
2022/06/11 04:13:11;;;;;;;19.73;12.30;;;14.10;99.90;;;;;;5134842;27;20046;-62
2022/06/11 04:15:40;;;;;;;14.57;11.07;;;14.20;99.90;;;;;;5145209;27;20112;-62
2022/06/11 04:18:07;;;;;;;24.10;12.50;;;14.30;99.90;;;;;;5146805;27;20042;-62
2022/06/11 04:20:33;;;;;;;21.30;12.35;;;14.30;99.90;;;;;;5148119;27;20035;-63
2022/06/11 04:22:59;;;;;;;19.23;11.45;;;14.40;99.90;;;;;;5149933;27;20490;-62
2022/06/11 04:25:25;;;;;;;20.67;11.65;;;14.50;99.90;;;;;;5145250;27;20042;-62
2022/06/11 04:27:53;;;;;;;21.27;11.13;;;14.50;99.90;;;;;;5150921;27;20035;-62
2022/06/11 04:30:24;;;;;;;15.00;10.40;;;14.50;99.90;;;;;;5150936;27;20066;-62
2022/06/11 04:32:49;;;;;;;18.08;9.77;;;14.60;99.90;;;;;;5154832;27;20061;-62
2022/06/11 04:35:15;;;;;;;17.92;10.93;;;14.60;99.90;;;;;;5146676;27;20611;-62
2022/06/11 04:37:41;;;;;;;16.90;10.50;;;14.70;99.90;;;;;;5155504;27;20035;-62
2022/06/11 04:40:10;;;;;;;17.50;9.50;;;14.70;99.90;;;;;;5149678;27;20437;-63
2022/06/11 04:42:36;;;;;;;17.92;8.73;;;14.80;99.90;;;;;;5153398;27;20035;-62
2022/06/11 04:45:05;;;;;;;17.55;9.18;;;14.90;99.90;;;;;;5140668;27;20079;-62
2022/06/11 04:47:31;;;;;;;18.80;8.05;;;14.90;99.90;;;;;;5152189;27;20366;-62
2022/06/11 04:50:00;;;;;;;13.85;8.27;;;15.00;99.90;;;;;;5152458;27;20042;-62
2022/06/11 04:52:27;;;;;;;15.25;7.78;;;15.10;99.90;;;;;;5152134;27;20056;-62
2022/06/11 04:54:53;;;;;;;15.70;7.65;;;15.20;99.90;;;;;;5148083;27;20043;-62
2022/06/11 04:57:20;;;;;;;15.45;7.80;;;15.20;99.90;;;;;;5130591;27;20031;-62
2022/06/11 04:59:46;;;;;;;15.32;6.78;;;15.30;99.90;;;;;;5144864;27;20035;-62
2022/06/11 05:02:12;;;;;;;13.93;6.40;;;15.40;99.90;;;;;;5143716;27;20082;-62
2022/06/11 05:04:38;;;;;;;18.02;6.25;;;15.40;99.90;;;;;;5136765;27;20043;-62
2022/06/11 05:07:04;;;;;;;11.63;5.32;;;15.50;99.90;;;;;;5152718;27;20116;-62
2022/06/11 05:09:30;;;;;;;13.05;5.68;;;15.60;99.90;;;;;;5142493;27;20034;-62
2022/06/11 05:11:56;;;;;;;13.45;5.07;;;15.70;99.90;;;;;;5149610;27;20030;-62
2022/06/11 05:14:23;;;;;;;11.77;4.90;;;15.70;99.90;;;;;;5130299;27;20039;-63
2022/06/11 05:16:50;;;;;;;12.27;5.28;;;15.80;99.90;;;;;;5151267;27;22537;-62
2022/06/11 05:19:20;;;;;;;12.27;4.40;;;15.90;99.90;;;;;;5141793;27;20038;-63
2022/06/11 05:21:48;;;;;;;15.50;4.47;;;16.00;99.90;;;;;;5146868;27;20039;-63
2022/06/11 05:24:14;;;;;;;13.70;4.05;;;16.10;99.90;;;;;;5127437;27;20047;-62
2022/06/11 05:26:49;;;;;;;16.10;4.03;;;16.20;99.90;;;;;;5149534;27;20045;-62
2022/06/11 05:29:27;;;;;;;11.65;3.55;;;16.30;99.90;;;;;;5144151;27;20602;-62
2022/06/11 05:31:53;;;;;;;10.25;3.40;;;16.40;99.90;;;;;;5151217;27;20508;-62
2022/06/11 05:34:19;;;;;;;12.55;3.90;;;16.40;99.90;;;;;;5143174;27;20031;-62
2022/06/11 05:36:45;;;;;;;13.55;3.83;;;16.50;99.90;;;;;;5128456;27;20046;-62
2022/06/11 05:39:10;;;;;;;11.85;3.63;;;16.60;99.90;;;;;;5129889;27;20603;-62
2022/06/11 05:41:36;;;;;;;13.00;3.78;;;16.70;99.90;;;;;;5132108;27;20478;-62
2022/06/11 05:44:02;;;;;;;11.40;3.20;;;16.80;99.90;;;;;;5145524;27;20034;-62
2022/06/11 05:46:28;;;;;;;8.40;3.33;;;16.90;99.90;;;;;;5149205;27;20063;-62
2022/06/11 05:49:00;;;;;;;14.48;3.45;;;17.10;99.90;;;;;;5148025;27;20041;-64
2022/06/11 05:51:31;;;;;;;14.10;3.80;;;17.20;99.90;;;;;;5153016;27;20122;-63
2022/06/11 05:54:00;;;;;;;12.52;3.00;;;17.20;99.90;;;;;;5146052;27;20393;-63
2022/06/11 05:56:26;;;;;;;13.65;3.80;;;17.20;99.90;;;;;;5135875;27;20078;-63
2022/06/11 05:58:55;;;;;;;14.18;3.78;;;17.30;99.90;;;;;;5145778;27;20134;-63
2022/06/11 06:01:24;;;;;;;9.25;2.97;;;17.40;99.00;;;;;;5152148;27;20493;-62
2022/06/11 06:03:50;;;;;;;14.07;3.72;;;17.50;99.70;;;;;;5151846;27;20045;-63
2022/06/11 06:06:16;;;;;;;15.68;3.45;;;17.70;99.30;;;;;;5149027;27;21853;-63
2022/06/11 06:08:41;;;;;;;12.10;3.35;;;17.80;98.80;;;;;;5145362;27;20079;-63
2022/06/11 06:11:07;;;;;;;15.52;4.30;;;17.90;98.00;;;;;;5139060;27;20031;-63
2022/06/11 06:13:45;;;;;;;12.43;3.28;;;18.00;97.50;;;;;;5149279;27;20039;-63
2022/06/11 06:16:11;;;;;;;12.25;3.42;;;17.90;97.00;;;;;;5140137;27;20122;-63
2022/06/11 06:18:37;;;;;;;11.60;3.58;;;18.00;95.70;;;;;;5145457;27;20133;-63
2022/06/11 06:21:03;;;;;;;18.10;4.28;;;18.00;95.80;;;;;;5148878;27;20038;-63
2022/06/11 06:23:31;;;;;;;15.25;3.55;;;18.10;95.90;;;;;;5148000;27;20067;-62
2022/06/11 06:25:57;;;;;;;14.07;3.80;;;18.20;95.40;;;;;;5134723;27;20091;-62
2022/06/11 06:28:22;;;;;;;18.30;4.00;;;18.40;95.20;;;;;;5145394;27;20066;-63
2022/06/11 06:30:48;;;;;;;18.42;4.28;;;18.40;94.00;;;;;;5146172;27;20062;-63
2022/06/11 06:33:14;;;;;;;13.63;3.70;;;18.50;94.70;;;;;;5149083;27;20050;-62
2022/06/11 06:35:39;;;;;;;12.30;3.67;;;18.70;94.60;;;;;;5152905;27;20034;-62
2022/06/11 06:38:06;;;;;;;16.30;4.20;;;18.80;94.00;;;;;;5137711;27;20374;-63
2022/06/11 06:40:32;;;;;;;16.80;4.30;;;18.90;93.40;;;;;;5150921;27;20058;-63
2022/06/11 06:42:58;;;;;;;14.77;3.83;;;19.10;92.60;;;;;;5137740;27;20534;-63
2022/06/11 06:45:23;;;;;;;13.82;3.92;;;19.30;92.10;;;;;;5148710;27;20117;-63
2022/06/11 06:47:49;;;;;;;21.88;4.05;;;19.10;92.20;;;;;;5130016;27;20123;-64
2022/06/11 06:50:15;;;;;;;15.02;4.32;;;19.20;91.50;;;;;;5149776;27;20035;-63
2022/06/11 06:52:40;;;;;;;14.80;3.95;;;19.20;91.20;;;;;;5146694;27;20385;-63
2022/06/11 06:55:08;;;;;;;12.70;4.15;;;19.40;90.80;;;;;;5125192;27;20040;-63
2022/06/11 06:57:33;;;;;;;15.15;4.07;;;19.60;90.60;;;;;;5129999;27;20078;-64
2022/06/11 07:00:01;;;;;;;13.00;3.75;;;19.70;90.60;;;;;;5125697;27;20565;-63
2022/06/11 07:02:27;;;;;;;15.65;3.38;;;19.70;89.70;;;;;;5121684;27;20039;-63
2022/06/11 07:04:53;;;;;;;17.45;4.15;;;20.00;90.20;;;;;;5129957;27;20039;-63
2022/06/11 07:07:19;;;;;;;11.45;3.72;;;20.20;90.00;;;;;;5130861;27;20043;-63
2022/06/11 07:09:45;;;;;;;13.32;3.60;;;20.50;88.80;;;;;;5132518;27;20039;-63
2022/06/11 07:12:11;;;;;;;17.75;3.58;;;20.50;88.30;;;;;;5123973;27;20040;-63
2022/06/11 07:14:36;;;;;;;12.90;3.70;;;20.60;86.70;;;;;;5128588;27;20039;-63
2022/06/11 07:17:06;;;;;;;15.20;3.85;;;20.80;85.60;;;;;;5129916;27;20562;-63
2022/06/11 07:19:48;;;;;;;15.93;4.43;;;20.90;81.60;;;;;;5126896;27;20039;-63
2022/06/11 07:22:18;;;;;;;12.15;3.03;;;21.00;81.00;;;;;;5128088;27;20134;-63
2022/06/11 07:24:44;;;;;;;10.35;3.60;;;21.20;82.50;;;;;;5129059;27;20138;-63
2022/06/11 07:27:17;;;;;;;15.13;4.13;;;21.50;81.90;;;;;;5128525;27;20122;-63
2022/06/11 07:29:49;;;;;;;15.10;3.30;;;21.40;78.40;;;;;;5126607;27;20106;-63
2022/06/11 07:32:18;;;;;;;15.13;3.95;;;21.30;79.50;;;;;;5126476;27;20035;-63
2022/06/11 07:34:44;;;;;;;14.02;4.13;;;21.00;78.00;;;;;;5126807;27;20046;-63
2022/06/11 07:37:10;;;;;;;18.73;4.18;;;21.20;79.40;;;;;;5127314;27;20145;-63
2022/06/11 07:39:36;;;;;;;15.48;4.53;;;21.40;78.50;;;;;;5128062;27;20043;-63
2022/06/11 07:42:02;;;;;;;13.40;3.92;;;21.40;77.90;;;;;;5127617;27;20046;-63
2022/06/11 07:44:28;;;;;;;14.27;4.13;;;21.50;77.00;;;;;;5121093;27;20042;-63
2022/06/11 07:46:54;;;;;;;15.27;4.28;;;21.80;77.20;;;;;;5127126;28;20088;-63
2022/06/11 07:49:19;;;;;;;16.80;3.83;;;22.00;76.40;;;;;;5128113;28;20035;-63
2022/06/11 07:51:45;;;;;;;20.02;4.70;;;22.30;75.20;;;;;;5129404;28;20035;-64
2022/06/11 07:54:11;;;;;;;13.98;4.30;;;22.30;74.50;;;;;;5145275;27;20478;-64
2022/06/11 07:56:38;;;;;;;15.45;3.95;;;22.20;74.60;;;;;;5143345;27;20046;-64
2022/06/11 07:59:05;;;;;;;12.18;3.80;;;22.40;74.10;;;;;;5134977;27;20989;-64
2022/06/11 08:01:30;;;;;;;18.90;4.00;;;22.40;73.80;;;;;;5155760;27;20072;-63
2022/06/11 08:03:56;;;;;;;14.88;4.10;;;22.70;72.80;;;;;;5151428;27;20031;-64
2022/06/11 08:06:21;;;;;;;15.60;4.03;;;23.00;71.90;;;;;;5141853;27;20031;-63
2022/06/11 08:08:49;;;;;;;13.30;4.57;;;22.60;71.60;;;;;;5151472;27;20031;-64
2022/06/11 08:11:14;;;;;;;14.70;3.80;;;22.90;70.50;;;;;;5149291;27;20031;-63
2022/06/11 08:13:40;;;;;;;16.40;3.85;;;22.60;70.20;;;;;;5151150;27;20094;-63
2022/06/11 08:16:06;;;;;;;16.23;4.50;;;22.80;69.50;;;;;;5153786;27;20576;-64
2022/06/11 08:18:33;;;;;;;12.57;3.90;;;22.60;69.40;;;;;;5138155;27;20043;-63
2022/06/11 08:20:59;;;;;;;15.15;3.75;;;22.70;69.50;;;;;;5153087;27;20386;-63
2022/06/11 08:23:24;;;;;;;19.00;4.32;;;23.00;69.00;;;;;;5147817;27;20031;-63
2022/06/11 08:25:51;;;;;;;15.85;3.88;;;22.70;69.10;;;;;;5152708;27;20030;-64
2022/06/11 08:28:17;;;;;;;12.88;3.67;;;22.80;68.20;;;;;;5156815;27;20046;-64
2022/06/11 08:30:43;;;;;;;13.90;3.20;;;22.80;68.10;;;;;;5151017;27;20030;-63
2022/06/11 08:33:09;;;;;;;13.98;4.07;;;22.70;67.30;;;;;;5156206;27;20068;-63
2022/06/11 08:35:35;;;;;;;16.20;3.90;;;22.80;67.30;;;;;;5155904;27;20035;-63
2022/06/11 08:38:03;;;;;;;9.35;3.80;;;22.40;67.30;;;;;;5154439;27;20112;-64
2022/06/11 08:40:34;;;;;;;17.88;3.60;;;22.80;67.20;;;;;;5153618;27;20050;-64
2022/06/11 08:43:12;;;;;;;14.60;3.72;;;23.20;66.60;;;;;;5154216;27;20031;-64
2022/06/11 08:45:48;;;;;;;11.90;3.65;;;23.10;65.80;;;;;;5147146;27;20031;-64
2022/06/11 08:48:27;;;;;;;17.00;4.60;;;22.90;65.50;;;;;;5135808;27;20125;-63
2022/06/11 08:51:15;;;;;;;16.50;4.25;;;22.40;66.10;;;;;;5146919;27;20034;-63
2022/06/11 08:53:41;;;;;;;15.68;3.65;;;22.50;66.10;;;;;;5156207;27;20051;-64
2022/06/11 08:56:29;;;;;;;15.77;3.53;;;23.10;65.60;;;;;;5131848;27;20497;-64
2022/06/11 08:59:00;;;;;;;14.30;4.00;;;23.40;63.00;;;;;;5151768;27;20042;-64
2022/06/11 09:01:40;;;;;;;17.02;3.92;;;23.90;62.80;;;;;;5152610;27;20509;-64
2022/06/11 09:04:13;;;;;;;;;;;23.90;61.40;;;;;;5148841;27;20053;-64
2022/06/11 09:06:57;;;;;;;15.32;3.85;;;23.40;62.10;;;;;;5149123;27;20411;-63
2022/06/11 09:09:42;;;;;;;16.17;3.83;;;23.00;64.40;;;;;;5151152;27;20057;-64
2022/06/11 09:12:11;;;;;;;15.52;4.30;;;22.70;64.60;;;;;;5144389;27;20119;-63
2022/06/11 09:15:04;;;;;;;16.05;3.60;;;22.90;64.10;;;;;;5151338;27;20100;-64
2022/06/11 09:18:08;;;;;;;11.68;3.38;;;23.50;62.80;;;;;;5146951;27;20058;-63
2022/06/11 09:20:46;;;;;;;12.55;3.55;;;23.90;61.40;;;;;;5143352;27;20489;-63
2022/06/11 09:23:21;;;;;;;12.35;3.28;;;23.50;62.30;;;;;;5131016;27;20046;-63
2022/06/11 09:26:01;;;;;;;14.93;3.95;;;23.00;62.40;;;;;;5153433;27;20038;-63
2022/06/11 09:28:41;;;;;;;17.27;3.50;;;22.80;63.50;;;;;;5149063;27;20062;-63
2022/06/11 09:31:10;;;;;;;16.45;4.10;;;22.60;62.50;;;;;;5151688;27;20050;-63
2022/06/11 09:33:42;;;;;;;17.63;3.95;;;22.40;64.50;;;;;;5151213;27;20050;-63
2022/06/11 09:36:38;;;;;;;15.07;3.92;;;22.50;64.50;;;;;;5154821;27;20130;-63
2022/06/11 09:39:36;;;;;;;16.42;4.30;;;23.70;62.70;;;;;;5127220;27;20145;-63
2022/06/11 09:42:43;;;;;;;16.25;4.03;;;24.30;60.80;;;;;;5138724;27;20039;-64
2022/06/11 09:45:19;;;;;;;16.80;4.15;;;23.80;59.90;;;;;;5094361;27;20051;-64
2022/06/11 09:47:56;;;;;;;16.88;3.53;;;23.70;60.00;;;;;;5132443;27;20041;-65
2022/06/11 09:50:29;;;;;;;15.15;3.72;;;24.70;58.00;;;;;;5150929;27;20039;-64
2022/06/11 09:53:19;;;;;;;17.48;3.92;;;26.20;55.60;;;;;;5131258;27;20167;-64
2022/06/11 09:56:11;;;;;;;12.05;3.63;;;26.10;53.50;;;;;;5140201;27;20035;-65
2022/06/11 09:59:15;;;;;;;11.68;3.30;;;25.60;48.10;;;;;;5144997;27;20039;-64
2022/06/11 10:01:47;;;;;;;10.65;2.78;;;25.20;49.70;;;;;;5149387;27;20122;-64
2022/06/11 10:04:18;;;;;;;10.93;2.63;;;25.60;50.70;;;;;;5152872;27;20463;-66
2022/06/11 10:06:55;;;;;;;8.05;2.50;;;26.80;47.70;;;;;;5153382;27;20039;-64
2022/06/11 10:09:33;;;;;;;11.88;2.78;;;27.90;47.40;;;;;;5144541;27;20035;-64
2022/06/11 10:12:33;;;;;;;10.30;2.85;;;27.70;45.20;;;;;;5145634;27;20347;-64
2022/06/11 10:15:03;;;;;;;10.40;2.58;;;26.60;42.70;;;;;;5077420;27;20058;-64
2022/06/11 10:17:29;;;;;;;;;;;26.10;47.30;;;;;;5153088;27;20112;-64
2022/06/11 10:20:00;;;;;;;12.48;3.00;;;26.10;45.80;;;;;;5153807;27;19926;-64
2022/06/11 10:22:44;;;;;;;14.65;3.10;;;25.90;47.00;;;;;;5150370;27;20058;-64
2022/06/11 10:25:45;;;;;;;9.82;2.88;;;26.50;46.90;;;;;;5149502;27;20136;-65
2022/06/11 10:28:31;;;;;;;10.27;2.55;;;27.00;45.70;;;;;;5154049;27;20068;-64
2022/06/11 10:31:10;;;;;;;13.63;2.90;;;26.80;44.30;;;;;;5150302;27;20043;-64
2022/06/11 10:33:51;;;;;;;10.00;2.92;;;26.60;45.80;;;;;;5153222;27;20043;-64
2022/06/11 10:36:32;;;;;;;12.63;3.15;;;26.40;44.10;;;;;;5152472;27;20630;-65
2022/06/11 10:39:28;;;;;;;8.52;2.10;;;27.10;43.20;;;;;;5154667;27;20042;-64
2022/06/11 10:41:59;;;;;;;9.65;2.70;;;26.70;42.60;;;;;;5152504;27;20454;-63
2022/06/11 10:44:41;;;;;;;12.45;2.45;;;27.70;42.60;;;;;;5146398;27;20803;-65
2022/06/11 10:47:38;;;;;;;8.45;2.78;;;27.20;41.70;;;;;;5151665;27;20034;-64
2022/06/11 10:50:09;;;;;;;12.30;2.63;;;27.70;40.50;;;;;;5149039;27;20027;-65
2022/06/11 10:53:15;;;;;;;9.48;2.50;;;28.30;41.70;;;;;;5153432;27;20039;-64
2022/06/11 10:55:49;;;;;;;12.30;2.72;;;28.80;42.90;;;;;;5148764;27;20129;-64
2022/06/11 10:58:39;;;;;;;10.32;2.65;;;28.60;41.90;;;;;;5153615;27;20042;-64
2022/06/11 11:01:26;;;;;;;11.75;2.63;;;27.90;41.90;;;;;;5145019;27;20046;-66
2022/06/11 11:04:06;;;;;;;9.60;2.75;;;27.20;41.10;;;;;;5119584;27;20397;-64
2022/06/11 11:06:34;;;;;;;9.43;2.20;;;26.80;44.50;;;;;;5152614;27;20034;-63
2022/06/11 11:09:13;;;;;;;8.93;2.60;;;26.40;44.90;;;;;;5151435;27;20103;-64
2022/06/11 11:11:48;;;;;;;8.57;2.53;;;26.00;44.10;;;;;;5149120;27;20099;-64
2022/06/11 11:14:39;;;;;;;11.75;2.67;;;25.40;45.00;;;;;;5142181;27;20046;-63
2022/06/11 11:17:14;;;;;;;10.77;2.35;;;24.90;45.40;;;;;;5149632;27;20588;-65
2022/06/11 11:19:43;;;;;;;8.70;2.80;;;24.90;46.70;;;;;;5152840;27;20072;-63
2022/06/11 11:22:17;;;;;;;8.80;2.78;;;24.40;47.90;;;;;;5150012;27;20066;-66
2022/06/11 11:24:50;;;;;;;10.82;2.90;;;24.30;46.40;;;;;;5153220;27;20382;-64
2022/06/11 11:27:23;;;;;;;10.68;2.88;;;24.40;47.10;;;;;;5150906;27;20041;-64
2022/06/11 11:30:14;;;;;;;10.02;2.40;;;24.80;47.20;;;;;;5148854;27;20041;-64
2022/06/11 11:32:40;;;;;;;9.52;2.58;;;25.10;46.20;;;;;;5153213;27;20118;-63
2022/06/11 11:35:28;;;;;;;9.55;2.38;;;24.90;46.70;;;;;;5151089;27;20039;-63
2022/06/11 11:38:30;;;;;;;8.05;2.50;;;24.50;44.80;;;;;;5151295;27;20244;-63
2022/06/11 11:40:59;;;;;;;10.85;2.17;;;24.60;44.10;;;;;;5148595;27;20459;-64
2022/06/11 11:43:40;;;;;;;10.07;2.70;;;24.50;45.90;;;;;;5141603;27;20039;-63
2022/06/11 11:46:12;;;;;;;6.95;2.50;;;24.70;46.40;;;;;;5146110;27;20125;-64
2022/06/11 11:48:48;;;;;;;13.02;2.30;;;24.80;45.30;;;;;;5152944;27;20041;-64
2022/06/11 11:51:23;;;;;;;7.30;1.75;;;24.70;46.20;;;;;;5152553;27;20035;-64
2022/06/11 11:53:53;;;;;;;11.48;2.58;;;25.00;46.60;;;;;;5150048;27;20059;-64
2022/06/11 11:56:34;;;;;;;10.50;2.35;;;24.80;45.60;;;;;;5154244;27;20047;-64
2022/06/11 11:59:22;;;;;;;10.98;2.40;;;24.90;45.10;;;;;;5148399;27;20049;-64
2022/06/11 12:01:50;;;;;;;10.15;2.78;;;25.10;45.10;;;;;;5141302;27;21522;-65
2022/06/11 12:04:20;;;;;;;8.25;2.58;;;25.20;45.20;;;;;;5150538;27;20378;-65
2022/06/11 12:06:57;;;;;;;;;;;25.40;44.30;;;;;;5136205;27;20366;-64
2022/06/11 12:09:47;;;;;;;11.85;2.72;;;25.00;44.40;;;;;;5150381;27;20404;-63
2022/06/11 12:12:19;;;;;;;10.25;3.10;;;25.60;44.10;;;;;;5116789;27;20051;-63
2022/06/11 12:14:59;;;;;;;9.32;2.65;;;25.80;44.60;;;;;;5142192;27;20039;-64
2022/06/11 12:17:35;;;;;;;7.90;2.42;;;26.70;44.10;;;;;;5134889;27;20045;-64
2022/06/11 12:20:07;;;;;;;10.68;3.03;;;26.70;42.70;;;;;;5150943;27;20100;-65
2022/06/11 12:22:46;;;;;;;9.88;2.53;;;26.90;41.90;;;;;;5149586;27;20073;-64
2022/06/11 12:25:31;;;;;;;10.82;2.40;;;28.10;41.70;;;;;;5152754;27;20042;-64
2022/06/11 12:27:58;;;;;;;13.68;2.70;;;28.80;40.10;;;;;;5114816;27;20027;-65
2022/06/11 12:30:27;;;;;;;12.10;3.00;;;28.60;38.90;;;;;;5143696;27;20113;-64
2022/06/11 12:32:53;;;;;;;8.90;2.50;;;28.30;38.80;;;;;;5147966;27;20042;-64
2022/06/11 12:35:51;;;;;;;11.38;2.20;;;29.00;38.70;;;;;;5152880;27;20031;-64
2022/06/11 12:38:30;;;;;;;9.27;2.53;;;29.40;37.90;;;;;;5125421;27;20078;-64
2022/06/11 12:41:08;;;;;;;6.88;2.38;;;30.30;36.40;;;;;;5150904;27;20034;-64
2022/06/11 12:43:48;;;;;;;9.52;2.78;;;31.60;35.80;;;;;;5145873;27;20435;-64
2022/06/11 12:46:27;;;;;;;12.50;2.92;;;32.30;33.30;;;;;;5150509;27;21866;-64
2022/06/11 12:49:10;;;;;;;10.82;2.55;;;33.40;32.60;;;;;;5137948;27;20386;-65
2022/06/11 12:51:35;;;;;;;8.45;3.05;;;33.80;30.00;;;;;;5157826;27;20043;-64
2022/06/11 12:54:45;;;;;;;7.80;2.25;;;33.70;31.10;;;;;;5153787;27;20394;-64
2022/06/11 12:57:22;;;;;;;8.70;2.70;;;33.50;30.40;;;;;;5157377;27;20027;-64
2022/06/11 13:00:11;;;;;;;8.57;2.38;;;34.30;30.60;;;;;;5152980;27;20035;-65
2022/06/11 13:03:15;;;;;;;8.65;2.58;;;33.70;30.00;;;;;;5156310;27;20462;-65
2022/06/11 13:05:41;;;;;;;8.48;2.40;;;34.60;30.40;;;;;;5139068;27;20047;-64
2022/06/11 13:08:25;;;;;;;7.55;2.38;;;34.90;29.90;;;;;;5156412;27;20045;-65